バンコク/スワンナプーム の空港の天気 - METARとTAF

スワンナプーム国際空港 ( VTBS / BKK ) - タイ サムットプラーカーン県 (バンコク近郊)
飛行場実況気象(Metar)
観測時間07/28 19:30 ICT (07/28 12:30 UTC)
風向・風速西南西 3m/s
視程9000m
天気現象弱い雨
少しの雲 雲底高度 610m
全天の4割程度の雲 雲底高度 1070m
全天の8割程度の雲 雲底高度 3050m
気温26℃
湿度84%
気圧1007hPa
METARVTBS 281230Z 24005KT 190V260 9000 -RA FEW020 SCT035 BKN100 26/23 Q1007 NOSIG
過去の天気等 Google飛行場航空写真 Wunderground天気予報

過去48時間のMETAR

飛行場予報(TAF)
発表時間: 7/28 18:00 ICT (7/28 11:00 UTC)
予報対象時間: 28日19時 ICT ~ 30日1時 ICT
風向・風速西南西 4m/s
視程10km以上
少しの雲 雲底高度 610m
全天の4割程度の雲 雲底高度 3,050m
28日23時 ICT ~ 29日1時 ICT に徐々に
風向・風速南 3m/s
少しの雲 雲底高度 610m
29日9時 ICT ~ 29日11時 ICT に徐々に
風向・風速西南西 5m/s
29日16時 ICT ~ 29日21時 ICT に一時的に
風向・風速西 8m/s
視程6,000m
天気現象弱い雷雨
少しの積乱雲 雲底高度 550m
全天の4割程度の雲 雲底高度 910m
29日23時 ICT ~ 30日1時 ICT に徐々に
風向・風速南 3m/s
TAF VTBS 281100Z 2812/2918 24008KT 9999 FEW020 SCT100
BECMG 2816/2818 18005KT FEW020
BECMG 2902/2904 24010KT
TEMPO 2909/2914 26015KT 6000 -TSRA FEW018CB SCT030
BECMG 2916/2918 18005KT